createdAt,value
2022-09-03T00:03:17.680Z,73.56
2022-09-03T00:08:33.453Z,73.78
2022-09-03T00:13:45.901Z,74.15
2022-09-03T00:18:56.997Z,74.26
2022-09-03T00:24:07.268Z,74.54
2022-09-03T00:29:33.106Z,74.56
2022-09-03T00:34:43.669Z,74.96
2022-09-03T00:39:50.140Z,75.22
2022-09-03T00:45:09.172Z,75.44
2022-09-03T00:50:26.982Z,75.57
2022-09-03T00:55:47.342Z,75.70
2022-09-03T01:00:53.476Z,75.88
2022-09-03T01:06:12.582Z,75.95
2022-09-03T01:11:27.861Z,75.81
2022-09-03T01:16:40.305Z,75.88
2022-09-03T01:22:10.146Z,76.08
2022-09-03T01:27:30.520Z,75.89
2022-09-03T01:32:45.540Z,75.81
2022-09-03T01:38:07.762Z,75.93
2022-09-03T01:43:34.108Z,75.85
2022-09-03T01:48:52.278Z,76.25
2022-09-03T01:54:17.988Z,76.23
2022-09-03T01:59:31.798Z,76.32
2022-09-03T02:04:37.739Z,76.42
2022-09-03T02:09:43.826Z,76.55
2022-09-03T02:14:50.966Z,76.54
2022-09-03T02:19:57.266Z,76.64
2022-09-03T02:25:03.747Z,76.19
2022-09-03T02:30:11.716Z,76.03
2022-09-03T02:35:18.258Z,75.77
2022-09-03T02:40:24.410Z,75.48
2022-09-03T02:45:31.677Z,75.46
2022-09-03T02:50:42.434Z,75.25
2022-09-03T02:55:48.434Z,75.21
2022-09-03T03:00:54.910Z,75.54
2022-09-03T03:06:03.729Z,75.62
2022-09-03T03:11:09.947Z,75.95
2022-09-03T03:16:17.179Z,75.96
2022-09-03T03:21:23.114Z,75.99
2022-09-03T03:26:29.001Z,75.98
2022-09-03T03:31:36.570Z,76.10
2022-09-03T03:36:42.476Z,76.48
2022-09-03T03:41:48.514Z,76.78
2022-09-03T03:46:54.241Z,77.11
2022-09-03T03:52:00.322Z,77.42
2022-09-03T03:57:06.436Z,77.55
2022-09-03T04:02:12.488Z,77.73
2022-09-03T04:07:18.444Z,78.00
2022-09-03T04:12:24.784Z,78.23
2022-09-03T04:17:31.315Z,78.59
2022-09-03T04:22:37.192Z,78.64
2022-09-03T04:27:44.289Z,78.73
2022-09-03T04:32:56.221Z,78.44
2022-09-03T04:38:04.297Z,76.75
2022-09-03T04:43:10.149Z,72.81
2022-09-03T04:48:16.186Z,71.41
2022-09-03T04:53:22.825Z,70.86
2022-09-03T04:58:28.890Z,66.87
2022-09-03T05:03:34.916Z,65.62
2022-09-03T05:08:40.854Z,65.87
2022-09-03T05:13:49.240Z,65.59
2022-09-03T05:18:56.944Z,65.79
2022-09-03T05:24:03.474Z,65.95
2022-09-03T05:29:11.604Z,65.18
2022-09-03T05:34:18.394Z,61.40
2022-09-03T05:39:24.974Z,54.45
2022-09-03T05:44:31.693Z,47.49
2022-09-03T05:49:37.636Z,41.84
2022-09-03T05:54:43.482Z,38.29
2022-09-03T05:59:49.890Z,34.82
2022-09-03T06:04:56.182Z,32.65
2022-09-03T06:10:02.239Z,30.60
2022-09-03T06:15:09.710Z,28.64
2022-09-03T06:20:15.510Z,26.14
2022-09-03T06:25:21.824Z,25.25
2022-09-03T06:30:27.781Z,24.94
2022-09-03T06:35:40.994Z,23.37
2022-09-03T06:40:58.266Z,22.62
2022-09-03T06:46:07.163Z,21.65
2022-09-03T06:51:15.640Z,21.30
2022-09-03T06:56:27.193Z,20.67
2022-09-03T07:01:34.401Z,19.74
2022-09-03T07:06:42.471Z,19.56
2022-09-03T07:11:49.395Z,18.80
2022-09-03T07:16:55.253Z,18.28
2022-09-03T07:22:01.814Z,17.95
2022-09-03T07:27:11.852Z,17.34
2022-09-03T07:32:21.065Z,17.07
2022-09-03T07:37:27.158Z,17.43
2022-09-03T07:42:35.651Z,17.13
2022-09-03T07:47:49.601Z,16.34
2022-09-03T07:52:59.316Z,16.24
2022-09-03T07:58:06.019Z,16.58
2022-09-03T08:03:13.964Z,16.09
2022-09-03T08:08:20.164Z,15.88
2022-09-03T08:13:27.127Z,15.00
2022-09-03T08:18:36.781Z,15.36
2022-09-03T08:23:44.151Z,14.04
2022-09-03T08:28:53.023Z,13.77
2022-09-03T08:34:03.264Z,14.13
2022-09-03T08:39:11.328Z,14.08
2022-09-03T08:44:25.606Z,14.01
2022-09-03T08:49:46.465Z,13.68
2022-09-03T08:54:58.357Z,13.68
2022-09-03T09:00:05.229Z,13.81
2022-09-03T09:05:17.405Z,13.50
2022-09-03T09:10:35.418Z,13.36
2022-09-03T09:15:49.429Z,13.82
2022-09-03T09:21:06.946Z,14.08
2022-09-03T09:26:16.246Z,13.43
2022-09-03T09:31:22.622Z,13.94
2022-09-03T09:36:28.757Z,14.39
2022-09-03T09:41:34.927Z,14.07
2022-09-03T09:46:43.007Z,13.97
2022-09-03T09:51:49.806Z,14.29
2022-09-03T09:57:03.640Z,15.08
2022-09-03T10:02:22.522Z,15.56
2022-09-03T10:07:32.885Z,16.52
2022-09-03T10:12:44.962Z,16.27
2022-09-03T10:17:57.857Z,15.85
2022-09-03T10:23:11.674Z,15.68
2022-09-03T10:28:18.426Z,15.59
2022-09-03T10:33:34.575Z,15.03
2022-09-03T10:38:43.130Z,16.18
2022-09-03T10:44:10.597Z,15.07
2022-09-03T10:49:37.621Z,15.52
2022-09-03T10:54:55.332Z,15.72
2022-09-03T11:00:10.599Z,15.68
2022-09-03T11:05:21.859Z,16.39
2022-09-03T11:10:31.190Z,16.36
2022-09-03T11:15:42.496Z,17.49
2022-09-03T11:20:50.915Z,18.20
2022-09-03T11:26:04.983Z,17.54
2022-09-03T11:31:20.658Z,18.33
2022-09-03T11:36:32.697Z,18.77
2022-09-03T11:41:39.811Z,19.37
2022-09-03T11:46:58.901Z,20.62
2022-09-03T11:52:10.719Z,21.72
2022-09-03T11:57:23.519Z,20.04
2022-09-03T12:02:35.971Z,20.94
2022-09-03T12:07:59.626Z,20.52
2022-09-03T12:13:19.365Z,20.55
2022-09-03T12:18:29.831Z,20.93
2022-09-03T12:23:42.369Z,21.24
2022-09-03T12:28:50.175Z,20.77
2022-09-03T12:34:00.920Z,23.08
2022-09-03T12:39:12.795Z,22.59
2022-09-03T12:44:28.523Z,21.55
2022-09-03T12:49:39.659Z,21.11
2022-09-03T12:54:53.153Z,22.50
2022-09-03T13:00:03.191Z,21.69
2022-09-03T13:05:17.386Z,21.90
2022-09-03T13:10:30.512Z,21.56
2022-09-03T13:15:36.488Z,21.29
2022-09-03T13:20:54.032Z,22.33
2022-09-03T13:26:08.923Z,22.24
2022-09-03T13:31:30.331Z,22.38
2022-09-03T13:36:45.096Z,23.64
2022-09-03T13:41:55.171Z,23.41
2022-09-03T13:47:08.482Z,23.06
2022-09-03T13:52:22.857Z,22.96
2022-09-03T13:57:40.011Z,23.33
2022-09-03T14:02:53.107Z,23.05
2022-09-03T14:08:09.423Z,22.94
2022-09-03T14:13:22.900Z,23.19
2022-09-03T14:18:39.221Z,23.08
2022-09-03T14:23:49.227Z,23.36
2022-09-03T14:29:02.556Z,23.59
2022-09-03T14:34:13.621Z,23.62
2022-09-03T14:39:32.703Z,24.00
2022-09-03T14:45:06.462Z,23.74
2022-09-03T14:50:27.873Z,23.93
2022-09-03T14:56:06.403Z,23.82
2022-09-03T15:01:18.981Z,24.00
2022-09-03T15:06:37.623Z,24.57
2022-09-03T15:11:52.662Z,24.75
2022-09-03T15:17:05.251Z,24.83
2022-09-03T15:22:27.371Z,24.93
2022-09-03T15:27:56.771Z,24.82
2022-09-03T15:33:16.511Z,24.97
2022-09-03T15:38:35.229Z,25.30
2022-09-03T15:43:42.434Z,25.55
2022-09-03T15:49:02.648Z,25.82
2022-09-03T15:54:16.582Z,26.17
2022-09-03T15:59:30.410Z,26.33
2022-09-03T16:04:53.322Z,26.59
2022-09-03T16:10:24.140Z,26.86
2022-09-03T16:15:35.021Z,27.01
2022-09-03T16:20:48.098Z,27.53
2022-09-03T16:26:00.658Z,27.60
2022-09-03T16:31:15.777Z,27.85
2022-09-03T16:36:37.741Z,28.07
2022-09-03T16:41:52.625Z,28.39
2022-09-03T16:47:07.845Z,29.25
2022-09-03T16:52:29.757Z,29.06
2022-09-03T16:58:00.105Z,30.93
2022-09-03T17:03:26.547Z,33.75
2022-09-03T17:08:40.493Z,36.05
2022-09-03T17:14:09.141Z,36.71
2022-09-03T17:19:23.934Z,40.77
2022-09-03T17:24:38.669Z,43.48
2022-09-03T17:30:02.520Z,44.91
2022-09-03T17:35:17.567Z,45.56
2022-09-03T17:40:31.560Z,46.61
2022-09-03T17:45:50.112Z,48.16
2022-09-03T17:51:01.709Z,48.66
2022-09-03T17:56:19.018Z,49.98
2022-09-03T18:01:29.457Z,51.42
2022-09-03T18:06:46.277Z,53.23
2022-09-03T18:11:58.372Z,53.66
2022-09-03T18:17:09.398Z,54.68
2022-09-03T18:22:34.382Z,55.59
2022-09-03T18:28:03.540Z,56.26
2022-09-03T18:33:28.503Z,56.91
2022-09-03T18:38:56.301Z,57.58
2022-09-03T18:44:31.054Z,58.66
2022-09-03T18:50:03.519Z,58.81
2022-09-03T18:55:38.189Z,59.15
2022-09-03T19:01:16.021Z,60.03
2022-09-03T19:06:49.505Z,60.23
2022-09-03T19:12:29.958Z,60.31
2022-09-03T19:18:13.536Z,60.57
2022-09-03T19:23:38.493Z,61.15
2022-09-03T19:29:06.555Z,61.57
2022-09-03T19:34:45.819Z,61.40
2022-09-03T19:40:29.686Z,61.80
2022-09-03T19:46:05.601Z,62.56
2022-09-03T19:51:37.683Z,62.77
2022-09-03T19:57:04.143Z,62.60
2022-09-03T20:02:29.997Z,63.14
2022-09-03T20:07:55.701Z,63.17
2022-09-03T20:13:13.401Z,63.30
2022-09-03T20:18:33.914Z,63.69
2022-09-03T20:23:47.749Z,63.57
2022-09-03T20:29:27.738Z,64.07
2022-09-03T20:34:45.002Z,64.41
2022-09-03T20:40:04.839Z,64.59
2022-09-03T20:45:17.945Z,64.83
2022-09-03T20:50:43.839Z,65.47
2022-09-03T20:55:54.787Z,65.87
2022-09-03T21:01:05.003Z,66.18
2022-09-03T21:06:22.715Z,66.51
2022-09-03T21:11:37.309Z,66.21
2022-09-03T21:16:57.425Z,66.20
2022-09-03T21:22:15.389Z,66.81
2022-09-03T21:27:26.041Z,67.19
2022-09-03T21:32:39.617Z,67.70
2022-09-03T21:37:54.717Z,68.16
2022-09-03T21:43:09.811Z,68.35
2022-09-03T21:48:20.452Z,68.50
2022-09-03T21:53:33.222Z,67.98
2022-09-03T21:58:53.840Z,68.27
2022-09-03T22:04:00.360Z,68.32
2022-09-03T22:09:13.825Z,68.83
2022-09-03T22:14:21.485Z,68.99
2022-09-03T22:19:27.995Z,68.13
2022-09-03T22:24:44.550Z,68.33
2022-09-03T22:30:00.537Z,68.81
2022-09-03T22:35:24.250Z,69.18
2022-09-03T22:40:39.554Z,69.50
2022-09-03T22:46:01.764Z,69.97
2022-09-03T22:51:09.313Z,70.24
2022-09-03T22:56:21.983Z,70.45
2022-09-03T23:01:34.748Z,70.69
2022-09-03T23:06:53.637Z,70.94
2022-09-03T23:12:06.674Z,71.13
2022-09-03T23:17:18.834Z,71.41
2022-09-03T23:22:31.225Z,71.60
2022-09-03T23:27:42.057Z,71.64
2022-09-03T23:32:50.177Z,71.86
2022-09-03T23:38:16.865Z,72.21
2022-09-03T23:44:00.358Z,72.39
2022-09-03T23:49:23.322Z,72.56
2022-09-03T23:54:39.066Z,72.82
